createdAt,value
2018-12-08T00:00:55.110Z,9.38
2018-12-08T00:01:55.099Z,9.38
2018-12-08T00:02:55.088Z,9.32
2018-12-08T00:03:55.090Z,9.38
2018-12-08T00:04:55.067Z,9.27
2018-12-08T00:05:55.060Z,9.24
2018-12-08T00:06:55.044Z,9.23
2018-12-08T00:07:55.035Z,9.20
2018-12-08T00:08:55.031Z,9.24
2018-12-08T00:09:55.011Z,9.21
2018-12-08T00:10:55.002Z,9.16
2018-12-08T00:11:54.997Z,9.15
2018-12-08T00:12:54.980Z,9.09
2018-12-08T00:13:54.977Z,9.01
2018-12-08T00:14:54.958Z,9.06
2018-12-08T00:15:54.949Z,9.06
2018-12-08T00:16:54.939Z,8.94
2018-12-08T00:17:54.932Z,8.91
2018-12-08T00:18:54.945Z,8.91
2018-12-08T00:19:54.906Z,8.83
2018-12-08T00:20:54.893Z,8.79
2018-12-08T00:21:54.930Z,8.68
2018-12-08T00:22:54.873Z,8.71
2018-12-08T00:23:54.862Z,8.68
2018-12-08T00:24:54.859Z,8.65
2018-12-08T00:25:54.840Z,8.63
2018-12-08T00:26:54.829Z,8.58
2018-12-08T00:27:54.819Z,8.58
2018-12-08T00:28:54.812Z,8.57
2018-12-08T00:29:54.809Z,8.51
2018-12-08T00:30:54.787Z,8.53
2018-12-08T00:31:54.775Z,8.53
2018-12-08T00:32:54.764Z,8.45
2018-12-08T00:33:54.754Z,8.37
2018-12-08T00:34:54.756Z,8.39
2018-12-08T00:35:54.731Z,8.28
2018-12-08T00:36:54.723Z,8.30
2018-12-08T00:37:54.710Z,8.17
2018-12-08T00:38:54.699Z,8.15
2018-12-08T00:39:54.697Z,8.20
2018-12-08T00:40:54.682Z,8.20
2018-12-08T00:41:54.670Z,8.17
2018-12-08T00:42:54.660Z,8.14
2018-12-08T00:43:54.645Z,8.14
2018-12-08T00:44:54.645Z,8.18
2018-12-08T00:45:54.627Z,8.14
2018-12-08T00:46:54.624Z,8.03
2018-12-08T00:47:54.602Z,8.11
2018-12-08T00:48:54.591Z,8.00
2018-12-08T00:49:54.589Z,7.92
2018-12-08T00:50:54.569Z,7.93
2018-12-08T00:51:54.558Z,7.92
2018-12-08T00:52:54.547Z,7.92
2018-12-08T00:53:54.537Z,7.90
2018-12-08T00:54:54.555Z,7.94
2018-12-08T00:55:54.516Z,7.77
2018-12-08T00:56:54.510Z,7.71
2018-12-08T00:57:54.496Z,7.71
2018-12-08T00:58:54.487Z,7.66
2018-12-08T00:59:54.473Z,7.56
2018-12-08T01:00:54.471Z,7.50
2018-12-08T01:01:54.453Z,7.42
2018-12-08T01:02:54.440Z,7.47
2018-12-08T01:03:54.435Z,7.37
2018-12-08T01:04:54.420Z,7.31
2018-12-08T01:05:54.418Z,7.32
2018-12-08T01:06:54.399Z,7.27
2018-12-08T01:07:54.388Z,7.34
2018-12-08T01:08:54.377Z,7.26
2018-12-08T01:09:54.370Z,7.31
2018-12-08T01:10:54.368Z,7.32
2018-12-08T01:11:54.344Z,7.32
2018-12-08T01:12:54.334Z,7.17
2018-12-08T01:13:54.324Z,7.19
2018-12-08T01:14:54.315Z,7.19
2018-12-08T01:15:54.313Z,7.09
2018-12-08T01:16:54.291Z,7.22
2018-12-08T01:17:54.281Z,7.19
2018-12-08T01:18:54.270Z,7.12
2018-12-08T01:19:54.263Z,7.17
2018-12-08T01:20:54.263Z,7.16
2018-12-08T01:21:54.239Z,7.16
2018-12-08T01:22:54.228Z,7.09
2018-12-08T01:23:54.217Z,7.05
2018-12-08T01:24:54.209Z,7.01
2018-12-08T01:25:54.204Z,6.99
2018-12-08T01:26:54.185Z,7.05
2018-12-08T01:27:54.175Z,7.17
2018-12-08T01:28:54.166Z,7.01
2018-12-08T01:29:54.154Z,7.01
2018-12-08T01:30:54.152Z,7.01
2018-12-08T01:31:54.133Z,7.04
2018-12-08T01:32:54.578Z,7.07
2018-12-08T01:33:54.222Z,6.99
2018-12-08T01:34:54.105Z,7.01
2018-12-08T01:35:54.103Z,7.01
2018-12-08T01:36:54.083Z,7.02
2018-12-08T01:37:54.073Z,7.09
2018-12-08T01:38:54.064Z,7.15
2018-12-08T01:39:54.052Z,7.07
2018-12-08T01:40:54.077Z,7.09
2018-12-08T01:41:54.033Z,7.08
2018-12-08T01:42:54.020Z,7.04
2018-12-08T01:43:54.010Z,7.13
2018-12-08T01:44:54.003Z,7.15
2018-12-08T01:45:53.989Z,7.17
2018-12-08T01:46:53.986Z,7.08
2018-12-08T01:47:53.968Z,7.13
2018-12-08T01:48:53.958Z,7.15
2018-12-08T01:49:53.949Z,7.12
2018-12-08T01:50:53.938Z,7.15
2018-12-08T01:51:53.935Z,7.20
2018-12-08T01:52:53.915Z,7.13
2018-12-08T01:53:53.905Z,7.13
2018-12-08T01:54:53.893Z,7.13
2018-12-08T01:55:53.882Z,7.17
2018-12-08T01:56:53.881Z,7.12
2018-12-08T01:57:53.861Z,7.15
2018-12-08T01:58:53.851Z,7.15
2018-12-08T01:59:53.840Z,7.17
2018-12-08T02:00:53.830Z,7.17
2018-12-08T02:01:53.827Z,7.09
2018-12-08T02:02:53.813Z,7.09
2018-12-08T02:03:53.798Z,7.16
2018-12-08T02:04:53.790Z,7.08
2018-12-08T02:05:53.777Z,7.04
2018-12-08T02:06:53.777Z,7.15
2018-12-08T02:07:53.758Z,7.02
2018-12-08T02:08:53.753Z,6.99
2018-12-08T02:09:53.737Z,7.09
2018-12-08T02:10:53.723Z,7.08
2018-12-08T02:11:53.722Z,7.08
2018-12-08T02:12:53.707Z,6.99
2018-12-08T02:13:53.692Z,7.05
2018-12-08T02:14:53.681Z,7.02
2018-12-08T02:15:53.672Z,7.01
2018-12-08T02:16:53.673Z,7.02
2018-12-08T02:17:53.648Z,6.95
2018-12-08T02:18:53.637Z,6.99
2018-12-08T02:19:53.627Z,6.98
2018-12-08T02:20:53.616Z,7.01
2018-12-08T02:21:53.607Z,6.91
2018-12-08T02:22:53.604Z,6.97
2018-12-08T02:23:53.584Z,6.91
2018-12-08T02:24:53.577Z,6.83
2018-12-08T02:25:53.566Z,6.83
2018-12-08T02:26:53.554Z,6.87
2018-12-08T02:27:53.553Z,6.91
2018-12-08T02:28:53.533Z,6.77
2018-12-08T02:29:53.520Z,6.86
2018-12-08T02:30:53.508Z,6.97
2018-12-08T02:31:53.505Z,6.90
2018-12-08T02:32:53.735Z,6.91
2018-12-08T02:33:53.477Z,6.91
2018-12-08T02:34:53.466Z,6.95
2018-12-08T02:35:53.457Z,7.01
2018-12-08T02:36:53.448Z,7.02
2018-12-08T02:37:53.451Z,6.97
2018-12-08T02:38:53.426Z,6.98
2018-12-08T02:39:53.414Z,7.01
2018-12-08T02:40:53.404Z,7.02
2018-12-08T02:41:53.394Z,6.99
2018-12-08T02:42:53.391Z,7.05
2018-12-08T02:43:53.376Z,6.99
2018-12-08T02:44:53.367Z,7.02
2018-12-08T02:45:53.351Z,6.99
2018-12-08T02:46:53.340Z,6.98
2018-12-08T02:47:53.342Z,7.01
2018-12-08T02:48:53.323Z,6.91
2018-12-08T02:49:53.308Z,6.84
2018-12-08T02:50:53.300Z,6.84
2018-12-08T02:51:53.285Z,6.91
2018-12-08T02:52:53.285Z,6.91
2018-12-08T02:53:53.271Z,6.90
2018-12-08T02:54:53.255Z,6.94
2018-12-08T02:55:53.244Z,6.89
2018-12-08T02:56:53.234Z,6.80
2018-12-08T02:57:53.250Z,6.80
2018-12-08T02:58:53.214Z,6.79
2018-12-08T02:59:53.204Z,6.68
2018-12-08T03:00:53.191Z,6.72
2018-12-08T03:01:53.181Z,6.79
2018-12-08T03:02:53.300Z,6.62
2018-12-08T03:03:53.167Z,6.63
2018-12-08T03:04:53.148Z,6.61
2018-12-08T03:05:53.137Z,6.59
2018-12-08T03:06:53.127Z,6.61
2018-12-08T03:07:53.119Z,6.50
2018-12-08T03:08:53.114Z,6.54
2018-12-08T03:09:53.100Z,6.56
2018-12-08T03:10:53.085Z,6.48
2018-12-08T03:11:53.074Z,6.51
2018-12-08T03:12:53.065Z,6.51
2018-12-08T03:13:53.060Z,6.51
2018-12-08T03:14:53.042Z,6.56
2018-12-08T03:15:53.031Z,6.50
2018-12-08T03:16:53.031Z,6.51
2018-12-08T03:17:53.011Z,6.54
2018-12-08T03:18:53.007Z,6.53
2018-12-08T03:19:52.989Z,6.44
2018-12-08T03:20:52.979Z,6.48
2018-12-08T03:21:52.968Z,6.46
2018-12-08T03:22:52.958Z,6.46
2018-12-08T03:23:52.967Z,6.53
2018-12-08T03:24:52.939Z,6.63
2018-12-08T03:25:52.924Z,6.54
2018-12-08T03:26:52.913Z,6.61
2018-12-08T03:27:52.903Z,6.65
2018-12-08T03:28:52.903Z,6.58
2018-12-08T03:29:52.883Z,6.68
2018-12-08T03:30:52.875Z,6.73
2018-12-08T03:31:52.869Z,6.81
2018-12-08T03:32:52.856Z,6.79
2018-12-08T03:33:52.870Z,6.81
2018-12-08T03:34:52.832Z,6.79
2018-12-08T03:35:52.823Z,6.79
2018-12-08T03:36:52.808Z,6.76
2018-12-08T03:37:52.801Z,6.79
2018-12-08T03:38:52.791Z,6.81
2018-12-08T03:39:52.785Z,6.79
2018-12-08T03:40:52.768Z,6.83
2018-12-08T03:41:52.759Z,6.77
2018-12-08T03:42:52.747Z,6.89
2018-12-08T03:43:52.736Z,6.79
2018-12-08T03:44:52.732Z,6.84
2018-12-08T03:45:52.712Z,6.80
2018-12-08T03:46:52.702Z,6.80
2018-12-08T03:47:52.698Z,6.72
2018-12-08T03:48:52.684Z,6.73
2018-12-08T03:49:52.681Z,6.66
2018-12-08T03:50:52.660Z,6.62
2018-12-08T03:51:52.651Z,6.73
2018-12-08T03:52:52.641Z,6.69
2018-12-08T03:53:52.632Z,6.72
2018-12-08T03:54:52.633Z,6.73
2018-12-08T03:55:52.612Z,6.71
2018-12-08T03:56:52.595Z,6.76
2018-12-08T03:57:52.587Z,6.69
2018-12-08T03:58:52.582Z,6.72
2018-12-08T03:59:52.596Z,6.69
2018-12-08T04:00:52.555Z,6.76
2018-12-08T04:01:52.543Z,6.76
2018-12-08T04:02:52.534Z,6.77
2018-12-08T04:03:52.522Z,6.73
2018-12-08T04:04:52.512Z,6.68
2018-12-08T04:05:52.511Z,6.59
2018-12-08T04:06:52.490Z,6.66
2018-12-08T04:07:52.480Z,6.62
2018-12-08T04:08:52.472Z,6.59
2018-12-08T04:09:52.464Z,6.62
2018-12-08T04:10:52.458Z,6.48
2018-12-08T04:11:52.441Z,6.46
2018-12-08T04:12:52.427Z,6.43
2018-12-08T04:13:52.414Z,6.48
2018-12-08T04:14:52.405Z,6.32
2018-12-08T04:15:52.405Z,6.36
2018-12-08T04:16:52.388Z,6.33
2018-12-08T04:17:52.380Z,6.30
2018-12-08T04:18:52.362Z,6.25
2018-12-08T04:19:52.351Z,6.19
2018-12-08T04:20:52.348Z,6.19
2018-12-08T04:21:52.328Z,6.01
2018-12-08T04:22:52.322Z,6.00
2018-12-08T04:23:52.307Z,5.95
2018-12-08T04:24:52.295Z,5.88
2018-12-08T04:25:52.295Z,5.88
2018-12-08T04:26:52.276Z,5.88
2018-12-08T04:27:52.265Z,5.89
2018-12-08T04:28:52.256Z,5.83
2018-12-08T04:29:52.255Z,5.92
2018-12-08T04:30:52.246Z,5.86
2018-12-08T04:31:52.222Z,5.77
2018-12-08T04:32:52.211Z,5.77
2018-12-08T04:33:52.199Z,5.81
2018-12-08T04:34:52.194Z,5.83
2018-12-08T04:35:52.186Z,5.68
2018-12-08T04:36:52.169Z,5.74
2018-12-08T04:37:52.156Z,5.81
2018-12-08T04:38:52.146Z,5.78
2018-12-08T04:39:52.137Z,5.81
2018-12-08T04:40:52.134Z,5.78
2018-12-08T04:41:52.113Z,5.68
2018-12-08T04:42:52.103Z,5.71
2018-12-08T04:43:52.092Z,5.73
2018-12-08T04:44:52.082Z,5.66
2018-12-08T04:45:52.080Z,5.71
2018-12-08T04:46:52.065Z,5.68
2018-12-08T04:47:52.054Z,5.67
2018-12-08T04:48:52.037Z,5.67
2018-12-08T04:49:52.030Z,5.70
2018-12-08T04:50:52.024Z,5.68
2018-12-08T04:51:52.004Z,5.71
2018-12-08T04:52:52.000Z,5.71
2018-12-08T04:53:51.983Z,5.75
2018-12-08T04:54:51.971Z,5.73
2018-12-08T04:55:51.973Z,5.82
2018-12-08T04:56:51.950Z,5.89
2018-12-08T04:57:51.946Z,5.98
2018-12-08T04:58:51.929Z,5.91
2018-12-08T04:59:51.919Z,5.95
2018-12-08T05:00:51.920Z,5.91
2018-12-08T05:01:51.896Z,5.88
2018-12-08T05:02:51.887Z,5.89
2018-12-08T05:03:51.881Z,5.86
2018-12-08T05:04:51.871Z,5.75
2018-12-08T05:05:51.894Z,5.78
2018-12-08T05:06:51.844Z,5.88
2018-12-08T05:07:51.835Z,5.70
2018-12-08T05:08:51.825Z,5.73
2018-12-08T05:09:51.817Z,5.67
2018-12-08T05:10:51.802Z,5.68
2018-12-08T05:11:51.797Z,5.68
2018-12-08T05:12:51.778Z,5.60
2018-12-08T05:13:51.768Z,5.60
2018-12-08T05:14:51.761Z,5.55
2018-12-08T05:15:51.747Z,5.49
2018-12-08T05:16:51.747Z,5.45
2018-12-08T05:17:51.725Z,5.38
2018-12-08T05:18:51.713Z,5.41
2018-12-08T05:19:51.703Z,5.43
2018-12-08T05:20:51.691Z,5.40
2018-12-08T05:21:51.693Z,5.40
2018-12-08T05:22:51.701Z,5.40
2018-12-08T05:23:51.660Z,5.48
2018-12-08T05:24:51.649Z,5.57
2018-12-08T05:25:51.639Z,5.55
2018-12-08T05:26:51.639Z,5.74
2018-12-08T05:27:51.618Z,5.67
2018-12-08T05:28:51.606Z,5.66
2018-12-08T05:29:51.595Z,5.83
2018-12-08T05:30:51.585Z,5.83
2018-12-08T05:31:51.586Z,5.78
2018-12-08T05:32:51.565Z,5.82
2018-12-08T05:33:51.554Z,5.78
2018-12-08T05:34:51.542Z,5.68
2018-12-08T05:35:51.531Z,5.73
2018-12-08T05:36:51.528Z,5.77
2018-12-08T05:37:51.509Z,5.78
2018-12-08T05:38:51.503Z,5.75
2018-12-08T05:39:51.487Z,5.85
2018-12-08T05:40:51.476Z,5.85
2018-12-08T05:41:51.476Z,5.86
2018-12-08T05:42:51.456Z,5.73
2018-12-08T05:43:51.450Z,5.75
2018-12-08T05:44:51.433Z,5.67
2018-12-08T05:45:51.422Z,5.63
2018-12-08T05:46:51.420Z,5.59
2018-12-08T05:47:51.403Z,5.57
2018-12-08T05:48:51.391Z,5.48
2018-12-08T05:49:51.379Z,5.45
2018-12-08T05:50:51.370Z,5.40
2018-12-08T05:51:51.366Z,5.52
2018-12-08T05:52:51.348Z,5.41
2018-12-08T05:53:51.336Z,5.32
2018-12-08T05:54:51.325Z,5.30
2018-12-08T05:55:51.318Z,5.34
2018-12-08T05:56:51.319Z,5.25
2018-12-08T05:57:51.293Z,5.30
2018-12-08T05:58:51.282Z,5.20
2018-12-08T05:59:51.272Z,5.20
2018-12-08T06:00:51.261Z,5.17
2018-12-08T06:01:51.263Z,5.27
2018-12-08T06:02:51.240Z,5.10
2018-12-08T06:03:51.232Z,5.12
2018-12-08T06:04:51.219Z,5.12
2018-12-08T06:05:51.208Z,5.07
2018-12-08T06:06:51.205Z,5.12
2018-12-08T06:07:51.194Z,5.20
2018-12-08T06:08:51.175Z,5.10
2018-12-08T06:09:51.168Z,5.17
2018-12-08T06:10:51.155Z,5.19
2018-12-08T06:11:51.156Z,5.23
2018-12-08T06:12:51.137Z,5.30
2018-12-08T06:13:51.130Z,5.20
2018-12-08T06:14:51.113Z,5.14
2018-12-08T06:15:51.101Z,5.30
2018-12-08T06:16:51.099Z,5.20
2018-12-08T06:17:51.084Z,5.28
2018-12-08T06:18:51.073Z,5.25
2018-12-08T06:19:51.059Z,5.34
2018-12-08T06:20:51.048Z,5.28
2018-12-08T06:21:51.051Z,5.27
2018-12-08T06:22:51.027Z,5.34
2018-12-08T06:23:51.023Z,5.31
2018-12-08T06:24:51.006Z,5.41
2018-12-08T06:25:50.995Z,5.40
2018-12-08T06:26:51.017Z,5.50
2018-12-08T06:27:50.974Z,5.50
2018-12-08T06:28:50.964Z,5.41
2018-12-08T06:29:50.953Z,5.43
2018-12-08T06:30:51.019Z,5.43
2018-12-08T06:31:50.934Z,5.49
2018-12-08T06:32:50.930Z,5.55
2018-12-08T06:33:50.914Z,5.56
2018-12-08T06:34:50.901Z,5.48
2018-12-08T06:35:50.890Z,5.46
2018-12-08T06:36:50.881Z,5.45
2018-12-08T06:37:50.876Z,5.40
2018-12-08T06:38:50.858Z,5.41
2018-12-08T06:39:50.848Z,5.41
2018-12-08T06:40:50.837Z,5.37
2018-12-08T06:41:50.827Z,5.28
2018-12-08T06:42:50.824Z,5.31
2018-12-08T06:43:50.805Z,5.28
2018-12-08T06:44:50.795Z,5.17
2018-12-08T06:45:50.783Z,5.13
2018-12-08T06:46:50.782Z,5.12
2018-12-08T06:47:50.774Z,5.04
2018-12-08T06:48:50.755Z,5.10
2018-12-08T06:49:50.743Z,4.95
2018-12-08T06:50:50.732Z,4.95
2018-12-08T06:51:50.723Z,4.95
2018-12-08T06:52:50.719Z,4.92
2018-12-08T06:53:50.700Z,4.96
2018-12-08T06:54:50.695Z,5.01
2018-12-08T06:55:50.680Z,4.92
2018-12-08T06:56:50.668Z,4.96
2018-12-08T06:57:50.666Z,4.92
2018-12-08T06:58:50.648Z,4.92
2018-12-08T06:59:50.639Z,4.76
2018-12-08T07:00:50.633Z,4.89
2018-12-08T07:01:50.616Z,4.89
2018-12-08T07:02:50.613Z,4.91
2018-12-08T07:03:50.593Z,4.94
2018-12-08T07:04:50.686Z,4.91
2018-12-08T07:05:50.572Z,4.88
2018-12-08T07:06:50.562Z,4.89
2018-12-08T07:07:50.561Z,4.83
2018-12-08T07:08:50.541Z,4.69
2018-12-08T07:09:50.530Z,4.77
2018-12-08T07:10:50.520Z,4.75
2018-12-08T07:11:50.509Z,4.77
2018-12-08T07:12:50.513Z,4.83
2018-12-08T07:13:50.489Z,4.88
2018-12-08T07:14:50.477Z,4.91
2018-12-08T07:15:50.466Z,4.88
2018-12-08T07:16:50.456Z,4.94
2018-12-08T07:17:50.455Z,4.98
2018-12-08T07:18:50.438Z,5.02
2018-12-08T07:19:50.425Z,5.05
2018-12-08T07:20:50.414Z,5.13
2018-12-08T07:21:50.404Z,5.14
2018-12-08T07:22:50.403Z,5.16
2018-12-08T07:23:50.384Z,5.20
2018-12-08T07:24:50.372Z,5.32
2018-12-08T07:25:50.364Z,5.28
2018-12-08T07:26:50.351Z,5.32
2018-12-08T07:27:50.353Z,5.45
2018-12-08T07:28:50.331Z,5.45
2018-12-08T07:29:50.322Z,5.43
2018-12-08T07:30:50.308Z,5.41
2018-12-08T07:31:50.298Z,5.40
2018-12-08T07:32:50.312Z,5.40
2018-12-08T07:33:50.277Z,5.43
2018-12-08T07:34:50.347Z,5.43
2018-12-08T07:35:50.259Z,5.41
2018-12-08T07:36:50.244Z,5.43
2018-12-08T07:37:50.235Z,5.49
2018-12-08T07:38:50.232Z,5.53
2018-12-08T07:39:50.213Z,5.55
2018-12-08T07:40:50.203Z,5.56
2018-12-08T07:41:50.196Z,5.66
2018-12-08T07:42:50.182Z,5.71
2018-12-08T07:43:50.179Z,5.74
2018-12-08T07:44:50.160Z,5.82
2018-12-08T07:45:50.153Z,5.75
2018-12-08T07:46:50.142Z,5.78
2018-12-08T07:47:50.128Z,5.82
2018-12-08T07:48:50.125Z,5.77
2018-12-08T07:49:50.108Z,5.74
2018-12-08T07:50:50.101Z,5.78
2018-12-08T07:51:50.088Z,5.77
2018-12-08T07:52:50.079Z,5.71
2018-12-08T07:53:50.084Z,5.77
2018-12-08T07:54:50.159Z,5.70
2018-12-08T07:55:50.118Z,5.68
2018-12-08T07:56:50.112Z,5.71
2018-12-08T07:57:50.111Z,5.68
2018-12-08T07:58:50.741Z,5.71
2018-12-08T07:59:50.099Z,5.70
2018-12-08T08:00:50.180Z,5.64
2018-12-08T08:01:49.983Z,5.59
2018-12-08T08:02:49.972Z,5.63
2018-12-08T08:03:49.968Z,5.64
2018-12-08T08:04:49.950Z,5.59
2018-12-08T08:05:49.934Z,5.59
2018-12-08T08:06:49.924Z,5.60
2018-12-08T08:07:49.912Z,5.66
2018-12-08T08:08:49.910Z,5.59
2018-12-08T08:09:49.891Z,5.63
2018-12-08T08:10:49.889Z,5.57
2018-12-08T08:11:49.870Z,5.63
2018-12-08T08:12:49.860Z,5.63
2018-12-08T08:13:49.860Z,5.63
2018-12-08T08:14:49.839Z,5.70
2018-12-08T08:15:49.826Z,5.66
2018-12-08T08:16:49.816Z,5.68
2018-12-08T08:17:49.805Z,5.82
2018-12-08T08:18:49.803Z,5.74
2018-12-08T08:19:49.782Z,5.75
2018-12-08T08:20:49.773Z,5.81
2018-12-08T08:21:49.762Z,5.86
2018-12-08T08:22:49.750Z,5.85
2018-12-08T08:23:49.750Z,5.88
2018-12-08T08:24:49.729Z,5.83
2018-12-08T08:25:49.720Z,5.92
2018-12-08T08:26:49.710Z,5.83
2018-12-08T08:27:49.700Z,5.82
2018-12-08T08:28:49.703Z,5.75
2018-12-08T08:29:49.675Z,5.86
2018-12-08T08:30:49.667Z,5.75
2018-12-08T08:31:49.738Z,5.85
2018-12-08T08:32:49.642Z,5.75
2018-12-08T08:33:49.648Z,5.75
2018-12-08T08:34:49.621Z,5.81
2018-12-08T08:35:49.610Z,5.73
2018-12-08T08:36:49.598Z,5.78
2018-12-08T08:37:49.590Z,5.83
2018-12-08T08:38:49.589Z,5.77
2018-12-08T08:39:49.573Z,5.74
2018-12-08T08:40:49.560Z,5.78
2018-12-08T08:41:49.546Z,5.82
2018-12-08T08:42:49.537Z,5.78
2018-12-08T08:43:49.535Z,5.75
2018-12-08T08:44:49.516Z,5.83
2018-12-08T08:45:49.513Z,5.85
2018-12-08T08:46:49.491Z,5.81
2018-12-08T08:47:49.509Z,5.85
2018-12-08T08:48:49.480Z,5.88
2018-12-08T08:49:49.459Z,5.82
2018-12-08T08:50:49.450Z,5.91
2018-12-08T08:51:49.437Z,5.86
2018-12-08T08:52:49.428Z,5.96
2018-12-08T08:53:49.494Z,5.95
2018-12-08T08:54:49.406Z,5.98
2018-12-08T08:55:49.408Z,5.96
2018-12-08T08:56:49.386Z,5.93
2018-12-08T08:57:49.373Z,6.01
2018-12-08T08:58:49.375Z,6.03
2018-12-08T08:59:49.361Z,6.07
2018-12-08T09:00:49.340Z,6.16
2018-12-08T09:01:49.331Z,6.21
2018-12-08T09:02:49.327Z,6.16
2018-12-08T09:03:49.308Z,6.22
2018-12-08T09:04:49.305Z,6.19
2018-12-08T09:05:49.290Z,6.22
2018-12-08T09:06:49.277Z,6.22
2018-12-08T09:07:49.267Z,6.25
2018-12-08T09:08:49.260Z,6.32
2018-12-08T09:09:49.252Z,6.33
2018-12-08T09:10:49.233Z,6.35
2018-12-08T09:11:49.221Z,6.36
2018-12-08T09:12:49.212Z,6.32
2018-12-08T09:13:49.202Z,6.33
2018-12-08T09:14:49.204Z,6.40
2018-12-08T09:15:49.971Z,6.48
2018-12-08T09:16:49.168Z,6.50
2018-12-08T09:17:49.157Z,6.53
2018-12-08T09:18:49.147Z,6.43
2018-12-08T09:19:49.146Z,6.59
2018-12-08T09:20:49.124Z,6.47
2018-12-08T09:21:49.113Z,6.50
2018-12-08T09:22:49.111Z,6.56
2018-12-08T09:23:49.093Z,6.54
2018-12-08T09:24:49.090Z,6.61
2018-12-08T09:25:49.072Z,6.63
2018-12-08T09:26:49.060Z,6.61
2018-12-08T09:27:49.295Z,6.51
2018-12-08T09:28:49.040Z,6.51
2018-12-08T09:29:49.069Z,6.61
2018-12-08T09:30:49.018Z,6.48
2018-12-08T09:31:49.012Z,6.48
2018-12-08T09:32:48.995Z,6.63
2018-12-08T09:33:48.985Z,6.61
2018-12-08T09:34:48.977Z,6.56
2018-12-08T09:35:48.983Z,6.53
2018-12-08T09:36:48.954Z,6.56
2018-12-08T09:37:48.949Z,6.58
2018-12-08T09:38:48.932Z,6.61
2018-12-08T09:39:48.923Z,6.54
2018-12-08T09:40:48.920Z,6.56
2018-12-08T09:41:48.902Z,6.62
2018-12-08T09:42:48.891Z,6.61
2018-12-08T09:43:48.897Z,6.86
2018-12-08T09:44:48.869Z,7.81
2018-12-08T09:45:48.869Z,7.90
2018-12-08T09:46:48.848Z,7.78
2018-12-08T09:47:48.917Z,7.60
2018-12-08T09:48:48.842Z,7.50
2018-12-08T09:49:48.818Z,7.38
2018-12-08T09:50:48.816Z,7.32
2018-12-08T09:51:48.795Z,7.19
2018-12-08T09:52:48.785Z,7.05
2018-12-08T09:53:48.779Z,6.99
2018-12-08T09:54:48.773Z,6.99
2018-12-08T09:55:48.771Z,7.02
2018-12-08T09:56:48.742Z,6.94
2018-12-08T09:57:48.733Z,6.91
2018-12-08T09:58:48.721Z,6.90
2018-12-08T09:59:48.710Z,6.98
2018-12-08T10:00:48.714Z,7.01
2018-12-08T10:01:48.689Z,7.05
2018-12-08T10:02:48.682Z,7.16
2018-12-08T10:03:48.667Z,7.17
2018-12-08T10:04:48.656Z,7.15
2018-12-08T10:05:48.658Z,7.22
2018-12-08T10:06:48.643Z,7.22
2018-12-08T10:07:48.625Z,7.09
2018-12-08T10:08:48.614Z,7.20
2018-12-08T10:09:48.607Z,7.20
2018-12-08T10:10:48.608Z,7.16
2018-12-08T10:11:48.583Z,7.16
2018-12-08T10:12:48.577Z,7.15
2018-12-08T10:13:48.562Z,7.22
2018-12-08T10:14:48.553Z,7.16
2018-12-08T10:15:48.568Z,7.17
2018-12-08T10:16:48.529Z,7.09
2018-12-08T10:17:48.520Z,7.32
2018-12-08T10:18:48.532Z,7.34
2018-12-08T10:19:48.500Z,7.35
2018-12-08T10:20:48.489Z,7.50
2018-12-08T10:21:48.486Z,7.42
2018-12-08T10:22:48.468Z,7.40
2018-12-08T10:23:48.457Z,7.35
2018-12-08T10:24:48.467Z,7.38
2018-12-08T10:25:48.435Z,7.34
2018-12-08T10:26:48.433Z,7.49
2018-12-08T10:27:48.413Z,7.44
2018-12-08T10:28:48.405Z,7.42
2018-12-08T10:29:48.396Z,7.42
2018-12-08T10:30:48.382Z,7.35
2018-12-08T10:31:48.383Z,7.32
2018-12-08T10:32:48.362Z,7.42
2018-12-08T10:33:48.354Z,7.40
2018-12-08T10:34:48.345Z,7.32
2018-12-08T10:35:48.329Z,7.32
2018-12-08T10:36:48.331Z,7.32
2018-12-08T10:37:48.308Z,7.20
2018-12-08T10:38:48.298Z,7.12
2018-12-08T10:39:48.289Z,7.22
2018-12-08T10:40:48.276Z,7.23
2018-12-08T10:41:48.277Z,7.16
2018-12-08T10:42:48.257Z,7.16
2018-12-08T10:43:48.245Z,7.16
2018-12-08T10:44:48.236Z,7.16
2018-12-08T10:45:48.224Z,7.15
2018-12-08T10:46:48.224Z,7.19
2018-12-08T10:47:48.204Z,7.15
2018-12-08T10:48:48.193Z,7.17
2018-12-08T10:49:48.182Z,7.22
2018-12-08T10:50:48.171Z,7.23
2018-12-08T10:51:48.193Z,7.27
2018-12-08T10:52:48.151Z,7.31
2018-12-08T10:53:48.141Z,7.35
2018-12-08T10:54:48.129Z,7.38
2018-12-08T10:55:48.118Z,7.42
2018-12-08T10:56:48.108Z,7.49
2018-12-08T10:57:48.105Z,7.38
2018-12-08T10:58:48.086Z,7.38
2018-12-08T10:59:48.080Z,7.41
2018-12-08T11:00:48.065Z,7.42
2018-12-08T11:01:48.055Z,7.32
2018-12-08T11:02:48.054Z,7.34
2018-12-08T11:03:48.057Z,7.40
2018-12-08T11:04:48.024Z,7.40
2018-12-08T11:05:48.019Z,7.41
2018-12-08T11:06:48.005Z,7.37
2018-12-08T11:07:48.000Z,7.47
2018-12-08T11:08:47.981Z,7.41
2018-12-08T11:09:47.973Z,7.59
2018-12-08T11:10:47.966Z,7.59
2018-12-08T11:11:47.953Z,7.67
2018-12-08T11:12:47.946Z,7.60
2018-12-08T11:13:47.927Z,7.63
2018-12-08T11:14:47.917Z,7.59
2018-12-08T11:15:47.910Z,7.50
2018-12-08T11:16:47.900Z,7.42
2018-12-08T11:17:47.895Z,7.47
2018-12-08T11:18:47.875Z,7.37
2018-12-08T11:19:47.864Z,7.35
2018-12-08T11:20:47.854Z,7.32
2018-12-08T11:21:47.846Z,7.29
2018-12-08T11:22:47.842Z,7.31
2018-12-08T11:23:47.846Z,7.22
2018-12-08T11:24:47.813Z,7.32
2018-12-08T11:25:47.801Z,7.38
2018-12-08T11:26:47.790Z,7.27
2018-12-08T11:27:47.789Z,7.31
2018-12-08T11:28:47.774Z,7.31
2018-12-08T11:29:47.761Z,7.42
2018-12-08T11:30:47.749Z,7.41
2018-12-08T11:31:47.739Z,7.42
2018-12-08T11:32:47.738Z,7.47
2018-12-08T11:33:47.716Z,7.45
2018-12-08T11:34:47.710Z,7.45
2018-12-08T11:35:49.639Z,7.44
2018-12-08T11:36:49.695Z,7.38
2018-12-08T11:37:47.702Z,7.50
2018-12-08T11:38:47.663Z,7.44
2018-12-08T11:39:47.652Z,7.50
2018-12-08T11:40:47.649Z,7.53
2018-12-08T11:41:47.633Z,7.59
2018-12-08T11:42:47.620Z,7.56
2018-12-08T11:43:47.619Z,7.58
2018-12-08T11:44:47.600Z,7.66
2018-12-08T11:45:47.590Z,7.47
2018-12-08T11:46:47.586Z,7.47
2018-12-08T11:47:47.568Z,7.53
2018-12-08T11:48:47.567Z,7.59
2018-12-08T11:49:47.551Z,7.49
2018-12-08T11:50:47.537Z,7.59
2018-12-08T11:51:47.529Z,7.55
2018-12-08T11:52:47.520Z,7.53
2018-12-08T11:53:47.514Z,7.59
2018-12-08T11:54:47.494Z,7.56
2018-12-08T11:55:47.483Z,7.62
2018-12-08T11:56:47.473Z,7.69
2018-12-08T11:57:47.464Z,7.69
2018-12-08T11:58:47.462Z,7.69
2018-12-08T11:59:47.441Z,7.62
2018-12-08T12:00:47.431Z,7.69
2018-12-08T12:01:47.420Z,7.66
2018-12-08T12:02:47.427Z,7.69
2018-12-08T12:03:47.406Z,7.63
2018-12-08T12:04:47.388Z,7.63
2018-12-08T12:05:47.379Z,7.72
2018-12-08T12:06:47.368Z,7.66
2018-12-08T12:07:47.356Z,7.67
2018-12-08T12:08:47.355Z,7.60
2018-12-08T12:09:47.336Z,7.72
2018-12-08T12:10:47.324Z,7.67
2018-12-08T12:11:47.313Z,7.67
2018-12-08T12:12:47.306Z,7.75
2018-12-08T12:13:47.303Z,7.81
2018-12-08T12:14:47.282Z,7.79
2018-12-08T12:15:47.276Z,7.81
2018-12-08T12:16:47.260Z,7.74
2018-12-08T12:17:47.251Z,7.84
2018-12-08T12:18:47.249Z,7.82
2018-12-08T12:19:47.230Z,7.82
2018-12-08T12:20:47.217Z,7.79
2018-12-08T12:21:47.212Z,7.81
2018-12-08T12:22:47.199Z,7.82
2018-12-08T12:23:47.196Z,7.81
2018-12-08T12:24:47.176Z,7.77
2018-12-08T12:25:47.166Z,7.78
2018-12-08T12:26:47.155Z,7.77
2018-12-08T12:27:47.155Z,7.79
2018-12-08T12:28:47.165Z,7.77
2018-12-08T12:29:47.122Z,7.79
2018-12-08T12:30:47.198Z,7.79
2018-12-08T12:31:47.105Z,7.77
2018-12-08T12:32:47.091Z,7.82
2018-12-08T12:33:47.087Z,7.84
2018-12-08T12:34:47.080Z,7.81
2018-12-08T12:35:47.058Z,7.84
2018-12-08T12:36:47.047Z,7.82
2018-12-08T12:37:47.037Z,7.82
2018-12-08T12:38:47.031Z,7.84
2018-12-08T12:39:47.029Z,7.77
2018-12-08T12:40:47.006Z,7.79
2018-12-08T12:41:46.994Z,7.84
2018-12-08T12:42:46.984Z,7.82
2018-12-08T12:43:46.976Z,7.81
2018-12-08T12:44:46.972Z,7.90
2018-12-08T12:45:46.954Z,7.92
2018-12-08T12:46:46.940Z,7.89
2018-12-08T12:47:46.934Z,7.89
2018-12-08T12:48:46.923Z,7.93
2018-12-08T12:49:46.919Z,7.97
2018-12-08T12:50:46.899Z,7.81
2018-12-08T12:51:46.889Z,7.97
2018-12-08T12:52:46.879Z,7.94
2018-12-08T12:53:46.870Z,7.94
2018-12-08T12:54:46.865Z,7.90
2018-12-08T12:55:46.848Z,7.94
2018-12-08T12:56:46.839Z,7.96
2018-12-08T12:57:46.837Z,7.97
2018-12-08T12:58:46.815Z,7.92
2018-12-08T12:59:46.812Z,7.96
2018-12-08T13:00:46.791Z,7.96
2018-12-08T13:01:46.783Z,7.96
2018-12-08T13:02:46.775Z,7.93
2018-12-08T13:03:46.759Z,7.92
2018-12-08T13:04:47.047Z,8.02
2018-12-08T13:05:46.741Z,8.03
2018-12-08T13:06:46.733Z,8.02
2018-12-08T13:07:46.719Z,7.94
2018-12-08T13:08:46.712Z,7.94
2018-12-08T13:09:46.697Z,7.96
2018-12-08T13:10:46.697Z,7.93
2018-12-08T13:11:46.675Z,8.00
2018-12-08T13:12:46.664Z,7.96
2018-12-08T13:13:46.656Z,8.11
2018-12-08T13:14:46.648Z,7.94
2018-12-08T13:15:46.648Z,7.97
2018-12-08T13:16:46.622Z,7.96
2018-12-08T13:17:46.617Z,7.93
2018-12-08T13:18:46.605Z,7.99